createdAt,value
2023-04-11T00:01:11.118Z,55.49
2023-04-11T00:03:38.423Z,55.45
2023-04-11T00:06:05.358Z,55.52
2023-04-11T00:08:31.782Z,55.55
2023-04-11T00:10:58.427Z,55.56
2023-04-11T00:13:26.652Z,55.55
2023-04-11T00:15:55.639Z,55.43
2023-04-11T00:18:22.890Z,55.48
2023-04-11T00:20:49.381Z,55.49
2023-04-11T00:23:16.035Z,55.49
2023-04-11T00:25:42.507Z,55.58
2023-04-11T00:28:09.390Z,55.58
2023-04-11T00:30:35.750Z,55.63
2023-04-11T00:33:02.317Z,55.58
2023-04-11T00:35:28.930Z,55.68
2023-04-11T00:37:56.276Z,55.73
2023-04-11T00:40:22.956Z,55.78
2023-04-11T00:42:49.451Z,55.87
2023-04-11T00:45:15.891Z,55.69
2023-04-11T00:47:42.475Z,55.72
2023-04-11T00:50:09.199Z,55.78
2023-04-11T00:52:36.244Z,55.83
2023-04-11T00:55:03.339Z,55.79
2023-04-11T00:57:30.900Z,55.95
2023-04-11T00:59:58.264Z,55.92
2023-04-11T01:02:25.049Z,55.94
2023-04-11T01:04:51.628Z,55.95
2023-04-11T01:07:18.141Z,56.01
2023-04-11T01:09:44.646Z,56.10
2023-04-11T01:12:11.537Z,56.37
2023-04-11T01:14:37.916Z,56.12
2023-04-11T01:17:04.511Z,56.15
2023-04-11T01:19:31.214Z,56.23
2023-04-11T01:21:58.056Z,56.33
2023-04-11T01:24:25.657Z,56.20
2023-04-11T01:26:52.184Z,56.25
2023-04-11T01:29:18.680Z,56.31
2023-04-11T01:31:45.137Z,56.25
2023-04-11T01:34:14.213Z,56.23
2023-04-11T01:36:43.564Z,56.29
2023-04-11T01:39:10.088Z,56.18
2023-04-11T01:41:36.589Z,56.03
2023-04-11T01:44:03.977Z,56.02
2023-04-11T01:46:30.622Z,56.01
2023-04-11T01:48:57.729Z,56.02
2023-04-11T01:51:24.417Z,56.22
2023-04-11T01:53:51.085Z,56.19
2023-04-11T01:56:17.486Z,56.28
2023-04-11T01:58:43.849Z,56.25
2023-04-11T02:01:11.911Z,56.41
2023-04-11T02:03:38.471Z,56.37
2023-04-11T02:06:05.379Z,56.58
2023-04-11T02:08:31.914Z,56.48
2023-04-11T02:10:58.325Z,56.56
2023-04-11T02:13:24.755Z,56.69
2023-04-11T02:15:51.249Z,56.56
2023-04-11T02:18:17.692Z,56.45
2023-04-11T02:20:44.150Z,56.50
2023-04-11T02:23:11.157Z,56.50
2023-04-11T02:25:39.033Z,56.54
2023-04-11T02:28:08.010Z,56.62
2023-04-11T02:30:34.729Z,56.52
2023-04-11T02:33:01.769Z,56.52
2023-04-11T02:35:28.366Z,56.61
2023-04-11T02:37:54.791Z,56.53
2023-04-11T02:40:21.283Z,56.63
2023-04-11T02:42:47.671Z,56.54
2023-04-11T02:45:14.096Z,56.51
2023-04-11T02:47:40.618Z,56.48
2023-04-11T02:50:07.546Z,56.58
2023-04-11T02:52:34.188Z,56.48
2023-04-11T02:55:00.748Z,56.63
2023-04-11T02:57:27.762Z,56.73
2023-04-11T02:59:54.408Z,56.79
2023-04-11T03:02:23.492Z,56.72
2023-04-11T03:04:50.240Z,56.92
2023-04-11T03:07:16.626Z,56.88
2023-04-11T03:09:43.033Z,56.81
2023-04-11T03:12:09.475Z,56.93
2023-04-11T03:14:35.923Z,56.96
2023-04-11T03:17:02.412Z,57.02
2023-04-11T03:19:28.855Z,57.01
2023-04-11T03:21:55.525Z,57.06
2023-04-11T03:24:22.464Z,56.91
2023-04-11T03:26:48.924Z,56.94
2023-04-11T03:29:16.629Z,56.87
2023-04-11T03:31:43.233Z,56.95
2023-04-11T03:34:09.727Z,57.04
2023-04-11T03:36:36.207Z,57.03
2023-04-11T03:39:02.936Z,57.07
2023-04-11T03:41:29.818Z,57.00
2023-04-11T03:43:56.253Z,57.00
2023-04-11T03:46:22.846Z,57.02
2023-04-11T03:48:49.386Z,57.07
2023-04-11T03:51:15.961Z,57.09
2023-04-11T03:53:42.349Z,57.10
2023-04-11T03:56:09.179Z,57.16
2023-04-11T03:58:36.129Z,57.21
2023-04-11T04:01:03.412Z,57.05
2023-04-11T04:03:30.054Z,57.10
2023-04-11T04:05:56.838Z,57.02
2023-04-11T04:08:23.388Z,56.99
2023-04-11T04:10:49.836Z,56.97
2023-04-11T04:13:17.534Z,56.92
2023-04-11T04:15:43.988Z,57.06
2023-04-11T04:18:10.436Z,57.00
2023-04-11T04:20:36.892Z,57.06
2023-04-11T04:23:06.113Z,57.06
2023-04-11T04:25:32.630Z,57.20
2023-04-11T04:28:00.991Z,57.24
2023-04-11T04:30:28.992Z,57.21
2023-04-11T04:32:58.875Z,57.33
2023-04-11T04:35:26.155Z,57.21
2023-04-11T04:37:56.413Z,57.29
2023-04-11T04:40:22.918Z,57.46
2023-04-11T04:42:58.639Z,57.40
2023-04-11T04:45:26.624Z,57.42
2023-04-11T04:47:53.112Z,57.46
2023-04-11T04:50:19.831Z,57.47
2023-04-11T04:52:46.606Z,57.50
2023-04-11T04:55:14.031Z,57.32
2023-04-11T04:57:40.609Z,57.43
2023-04-11T05:00:11.600Z,57.40
2023-04-11T05:02:38.238Z,57.34
2023-04-11T05:05:05.012Z,57.43
2023-04-11T05:07:31.481Z,57.50
2023-04-11T05:09:57.926Z,57.46
2023-04-11T05:12:27.185Z,57.44
2023-04-11T05:14:55.497Z,57.35
2023-04-11T05:17:23.883Z,57.43
2023-04-11T05:19:51.617Z,57.32
2023-04-11T05:22:18.162Z,57.37
2023-04-11T05:24:44.711Z,57.32
2023-04-11T05:27:13.434Z,57.32
2023-04-11T05:29:40.119Z,57.36
2023-04-11T05:32:06.507Z,57.37
2023-04-11T05:34:35.474Z,57.28
2023-04-11T05:37:01.974Z,57.34
2023-04-11T05:39:28.958Z,57.39
2023-04-11T05:41:56.793Z,57.42
2023-04-11T05:44:25.522Z,57.38
2023-04-11T05:46:52.064Z,57.22
2023-04-11T05:49:19.059Z,57.20
2023-04-11T05:51:45.704Z,57.02
2023-04-11T05:54:13.643Z,56.94
2023-04-11T05:56:42.542Z,57.01
2023-04-11T05:59:09.128Z,56.90
2023-04-11T06:01:35.619Z,57.09
2023-04-11T06:04:03.168Z,57.02
2023-04-11T06:06:29.859Z,57.03
2023-04-11T06:08:56.680Z,57.09
2023-04-11T06:11:25.363Z,57.06
2023-04-11T06:13:54.917Z,57.23
2023-04-11T06:16:30.112Z,57.21
2023-04-11T06:18:56.575Z,57.23
2023-04-11T06:21:26.373Z,57.45
2023-04-11T06:23:55.293Z,57.48
2023-04-11T06:26:21.888Z,57.50
2023-04-11T06:28:48.646Z,57.49
2023-04-11T06:31:15.664Z,57.45
2023-04-11T06:33:42.698Z,57.41
2023-04-11T06:36:09.460Z,57.50
2023-04-11T06:38:36.759Z,57.37
2023-04-11T06:41:04.423Z,57.22
2023-04-11T06:43:32.005Z,57.32
2023-04-11T06:45:58.479Z,57.33
2023-04-11T06:48:24.940Z,57.11
2023-04-11T06:50:51.326Z,57.14
2023-04-11T06:53:18.368Z,56.89
2023-04-11T06:55:48.085Z,56.83
2023-04-11T06:58:14.458Z,56.85
2023-04-11T07:00:41.094Z,56.94
2023-04-11T07:03:08.661Z,56.86
2023-04-11T07:05:38.196Z,57.08
2023-04-11T07:08:05.802Z,57.02
2023-04-11T07:10:32.324Z,57.13
2023-04-11T07:12:58.772Z,57.10
2023-04-11T07:15:25.186Z,57.14
2023-04-11T07:17:52.982Z,57.20
2023-04-11T07:20:19.634Z,57.12
2023-04-11T07:22:46.125Z,57.04
2023-04-11T07:25:13.310Z,56.86
2023-04-11T07:27:42.813Z,57.04
2023-04-11T07:30:09.457Z,57.11
2023-04-11T07:32:36.759Z,57.00
2023-04-11T07:35:06.168Z,57.06
2023-04-11T07:37:42.069Z,57.02
2023-04-11T07:40:11.846Z,57.00
2023-04-11T07:42:38.334Z,56.98
2023-04-11T07:45:05.100Z,57.02
2023-04-11T07:47:31.584Z,57.06
2023-04-11T07:49:59.424Z,56.91
2023-04-11T07:52:26.005Z,56.88
2023-04-11T07:54:52.361Z,57.01
2023-04-11T07:57:18.887Z,56.85
2023-04-11T07:59:46.388Z,57.02
2023-04-11T08:02:13.070Z,57.05
2023-04-11T08:04:41.991Z,57.01
2023-04-11T08:07:12.974Z,57.16
2023-04-11T08:09:39.454Z,57.20
2023-04-11T08:12:06.262Z,57.20
2023-04-11T08:14:32.775Z,57.25
2023-04-11T08:16:59.300Z,57.27
2023-04-11T08:19:25.907Z,57.22
2023-04-11T08:21:52.913Z,57.09
2023-04-11T08:24:19.587Z,57.36
2023-04-11T08:26:46.179Z,57.57
2023-04-11T08:29:13.706Z,57.49
2023-04-11T08:31:44.437Z,57.52
2023-04-11T08:34:11.406Z,57.44
2023-04-11T08:36:37.862Z,57.38
2023-04-11T08:39:04.392Z,57.12
2023-04-11T08:41:30.867Z,57.09
2023-04-11T08:43:57.863Z,57.01
2023-04-11T08:46:24.567Z,57.06
2023-04-11T08:48:51.310Z,57.24
2023-04-11T08:51:20.993Z,57.25
2023-04-11T08:53:47.516Z,57.13
2023-04-11T08:56:14.495Z,57.08
2023-04-11T08:58:43.132Z,57.14
2023-04-11T09:01:32.216Z,56.97
2023-04-11T09:03:59.658Z,57.09
2023-04-11T09:06:32.498Z,56.88
2023-04-11T09:08:59.997Z,57.07
2023-04-11T09:11:26.827Z,57.12
2023-04-11T09:14:10.740Z,57.28
2023-04-11T09:16:37.542Z,57.30
2023-04-11T09:19:04.015Z,57.56
2023-04-11T09:21:31.304Z,57.43
2023-04-11T09:24:16.543Z,57.78
2023-04-11T09:26:42.979Z,58.02
2023-04-11T09:29:09.477Z,58.25
2023-04-11T09:31:42.816Z,58.11
2023-04-11T09:34:09.520Z,58.13
2023-04-11T09:36:35.931Z,58.22
2023-04-11T09:39:19.265Z,58.31
2023-04-11T09:41:46.156Z,58.21
2023-04-11T09:44:12.824Z,58.47
2023-04-11T09:47:00.405Z,58.36
2023-04-11T09:49:27.099Z,58.66
2023-04-11T09:51:53.512Z,58.66
2023-04-11T09:54:23.340Z,58.66
2023-04-11T09:56:50.333Z,58.78
2023-04-11T09:59:16.809Z,58.74
2023-04-11T10:01:43.390Z,58.62
2023-04-11T10:04:11.573Z,58.82
2023-04-11T10:07:02.366Z,58.88
2023-04-11T10:09:28.992Z,59.15
2023-04-11T10:11:55.625Z,59.32
2023-04-11T10:14:37.420Z,59.36
2023-04-11T10:17:20.072Z,59.24
2023-04-11T10:19:50.839Z,59.29
2023-04-11T10:22:36.107Z,58.97
2023-04-11T10:25:17.156Z,59.05
2023-04-11T10:28:03.920Z,58.86
2023-04-11T10:30:39.716Z,59.09
2023-04-11T10:33:09.551Z,58.85
2023-04-11T10:35:40.309Z,58.75
2023-04-11T10:38:15.036Z,59.04
2023-04-11T10:41:01.522Z,59.67
2023-04-11T10:43:28.249Z,59.77
2023-04-11T10:46:14.679Z,60.04
2023-04-11T10:49:07.576Z,60.10
2023-04-11T10:51:34.179Z,60.10
2023-04-11T10:54:03.468Z,59.73
2023-04-11T10:56:50.662Z,60.13
2023-04-11T10:59:46.340Z,59.89
2023-04-11T11:02:13.012Z,60.23
2023-04-11T11:04:40.795Z,60.21
2023-04-11T11:07:13.418Z,60.55
2023-04-11T11:09:44.685Z,60.61
2023-04-11T11:12:13.981Z,60.56
2023-04-11T11:14:41.573Z,60.56
2023-04-11T11:17:33.157Z,60.41
2023-04-11T11:19:59.816Z,60.01
2023-04-11T11:22:38.640Z,59.89
2023-04-11T11:28:58.156Z,59.95
2023-04-11T11:31:34.197Z,59.84
2023-04-11T11:34:18.353Z,59.95
2023-04-11T11:36:47.701Z,60.46
2023-04-11T11:39:14.306Z,60.63
2023-04-11T11:41:40.866Z,60.72
2023-04-11T11:44:07.339Z,60.58
2023-04-11T11:46:37.471Z,60.71
2023-04-11T11:49:16.642Z,60.95
2023-04-11T11:55:53.048Z,60.95
2023-04-11T11:58:22.915Z,61.12
2023-04-11T12:01:18.689Z,61.09
2023-04-11T12:03:51.587Z,61.16
2023-04-11T12:09:48.246Z,60.29
2023-04-11T12:12:15.973Z,60.13
2023-04-11T12:14:56.696Z,59.86
2023-04-11T12:17:23.380Z,59.42
2023-04-11T12:19:49.897Z,59.65
2023-04-11T12:22:16.364Z,59.77
2023-04-11T12:24:46.094Z,59.54
2023-04-11T12:27:12.733Z,59.68
2023-04-11T12:29:39.232Z,59.41
2023-04-11T12:32:06.695Z,59.54
2023-04-11T12:34:40.396Z,59.55
2023-04-11T12:37:06.876Z,59.46
2023-04-11T12:39:33.320Z,59.49
2023-04-11T12:41:59.727Z,59.55
2023-04-11T12:44:26.664Z,59.42
2023-04-11T12:46:53.146Z,59.71
2023-04-11T12:49:20.624Z,59.53
2023-04-11T12:51:47.252Z,59.44
2023-04-11T12:54:13.659Z,59.67
2023-04-11T12:56:40.622Z,59.40
2023-04-11T12:59:07.173Z,59.74
2023-04-11T13:01:33.652Z,59.78
2023-04-11T13:04:00.652Z,59.73
2023-04-11T13:06:28.244Z,59.50
2023-04-11T13:08:56.640Z,59.51
2023-04-11T13:11:23.123Z,59.43
2023-04-11T13:13:50.952Z,59.79
2023-04-11T13:16:17.571Z,59.62
2023-04-11T13:18:44.074Z,59.80
2023-04-11T13:21:10.726Z,59.50
2023-04-11T13:23:37.074Z,59.95
2023-04-11T13:26:03.508Z,59.54
2023-04-11T13:28:29.930Z,59.84
2023-04-11T13:30:56.490Z,59.85
2023-04-11T13:33:22.926Z,59.82
2023-04-11T13:35:49.316Z,60.11
2023-04-11T13:38:15.793Z,60.07
2023-04-11T13:40:42.751Z,59.92
2023-04-11T13:43:10.031Z,60.05
2023-04-11T13:45:36.516Z,60.30
2023-04-11T13:48:03.347Z,60.34
2023-04-11T13:50:32.062Z,60.27
2023-04-11T13:52:58.452Z,60.48
2023-04-11T13:55:24.954Z,60.41
2023-04-11T13:57:51.408Z,60.33
2023-04-11T14:00:18.421Z,60.46
2023-04-11T14:02:45.030Z,60.46
2023-04-11T14:05:11.667Z,60.02
2023-04-11T14:07:38.093Z,60.33
2023-04-11T14:10:04.698Z,60.29
2023-04-11T14:12:31.146Z,59.96
2023-04-11T14:14:57.635Z,60.07
2023-04-11T14:17:24.302Z,59.96
2023-04-11T14:19:50.825Z,60.33
2023-04-11T14:22:17.422Z,60.29
2023-04-11T14:24:43.913Z,60.34
2023-04-11T14:27:10.332Z,60.20
2023-04-11T14:29:37.678Z,60.37
2023-04-11T14:32:07.035Z,60.33
2023-04-11T14:34:33.540Z,60.32
2023-04-11T14:37:00.014Z,60.38
2023-04-11T14:39:26.444Z,60.33
2023-04-11T14:41:52.788Z,60.38
2023-04-11T14:44:19.219Z,60.49
2023-04-11T14:46:45.879Z,60.68
2023-04-11T14:49:12.429Z,60.35
2023-04-11T14:51:38.911Z,60.63
2023-04-11T14:54:05.601Z,60.49
2023-04-11T14:56:32.432Z,60.48
2023-04-11T14:58:58.893Z,60.40
2023-04-11T15:01:25.360Z,60.60
2023-04-11T15:03:51.978Z,60.83
2023-04-11T15:06:18.490Z,61.02
2023-04-11T15:08:44.861Z,61.12
2023-04-11T15:11:11.406Z,60.99
2023-04-11T15:13:37.873Z,60.63
2023-04-11T15:16:04.559Z,60.87
2023-04-11T15:18:31.539Z,61.28
2023-04-11T15:20:58.685Z,61.55
2023-04-11T15:23:25.252Z,61.43
2023-04-11T15:25:59.689Z,61.46
2023-04-11T15:28:26.746Z,61.34
2023-04-11T15:30:53.899Z,61.87
2023-04-11T15:33:24.004Z,61.81
2023-04-11T15:35:50.743Z,61.80
2023-04-11T15:38:18.673Z,61.82
2023-04-11T15:40:45.165Z,61.71
2023-04-11T15:43:11.595Z,61.80
2023-04-11T15:45:38.493Z,61.89
2023-04-11T15:48:05.261Z,61.88
2023-04-11T15:50:32.133Z,61.96
2023-04-11T15:52:58.881Z,62.31
2023-04-11T15:55:25.331Z,62.08
2023-04-11T15:57:51.933Z,62.26
2023-04-11T16:00:19.659Z,62.05
2023-04-11T16:02:46.707Z,62.51
2023-04-11T16:05:13.727Z,62.34
2023-04-11T16:07:40.899Z,62.69
2023-04-11T16:10:10.814Z,62.59
2023-04-11T16:12:37.240Z,62.42
2023-04-11T16:15:04.121Z,62.47
2023-04-11T16:17:30.653Z,62.75
2023-04-11T16:19:57.138Z,62.77
2023-04-11T16:22:23.499Z,62.92
2023-04-11T16:24:49.960Z,63.03
2023-04-11T16:27:16.526Z,63.03
2023-04-11T16:29:42.982Z,63.35
2023-04-11T16:32:10.792Z,63.48
2023-04-11T16:34:37.309Z,63.53
2023-04-11T16:37:03.932Z,63.65
2023-04-11T16:39:30.568Z,63.68
2023-04-11T16:41:57.257Z,63.78
2023-04-11T16:44:23.708Z,64.07
2023-04-11T16:46:50.229Z,64.34
2023-04-11T16:49:20.661Z,64.26
2023-04-11T16:51:47.096Z,64.24
2023-04-11T16:54:13.836Z,64.34
2023-04-11T16:56:40.770Z,64.34
2023-04-11T16:59:07.447Z,64.37
2023-04-11T17:01:34.676Z,64.35
2023-04-11T17:04:01.687Z,64.80
2023-04-11T17:06:28.548Z,64.80
2023-04-11T17:08:57.049Z,64.76
2023-04-11T17:11:23.527Z,65.04
2023-04-11T17:13:49.979Z,65.02
2023-04-11T17:16:17.517Z,65.55
2023-04-11T17:18:44.060Z,65.49
2023-04-11T17:21:10.531Z,65.43
2023-04-11T17:23:43.159Z,65.53
2023-04-11T17:26:11.873Z,65.63
2023-04-11T17:28:39.243Z,65.94
2023-04-11T17:31:19.025Z,66.04
2023-04-11T17:33:46.009Z,66.16
2023-04-11T17:36:13.192Z,66.14
2023-04-11T17:38:40.264Z,66.50
2023-04-11T17:41:14.378Z,66.89
2023-04-11T17:43:41.637Z,66.93
2023-04-11T17:46:08.903Z,67.26
2023-04-11T17:48:36.891Z,67.30
2023-04-11T17:51:04.229Z,67.53
2023-04-11T17:53:31.051Z,67.80
2023-04-11T17:55:57.546Z,68.09
2023-04-11T17:58:33.709Z,68.21
2023-04-11T18:01:00.172Z,68.36
2023-04-11T18:03:26.721Z,68.41
2023-04-11T18:05:54.396Z,68.59
2023-04-11T18:08:26.025Z,68.71
2023-04-11T18:10:59.500Z,68.71
2023-04-11T18:13:27.187Z,68.83
2023-04-11T18:15:53.623Z,68.69
2023-04-11T18:18:20.048Z,68.82
2023-04-11T18:20:47.680Z,68.87
2023-04-11T18:23:14.157Z,68.80
2023-04-11T18:25:40.634Z,68.73
2023-04-11T18:28:07.262Z,68.87
2023-04-11T18:30:33.738Z,69.06
2023-04-11T18:33:00.321Z,68.88
2023-04-11T18:35:27.928Z,68.90
2023-04-11T18:37:54.433Z,69.05
2023-04-11T18:40:20.968Z,68.93
2023-04-11T18:42:48.855Z,68.98
2023-04-11T18:45:21.304Z,69.12
2023-04-11T18:47:47.806Z,68.96
2023-04-11T18:50:14.907Z,68.93
2023-04-11T18:52:41.369Z,68.92
2023-04-11T18:55:08.021Z,68.97
2023-04-11T18:57:36.587Z,68.71
2023-04-11T19:00:17.392Z,68.84
2023-04-11T19:02:45.922Z,68.54
2023-04-11T19:05:13.902Z,68.65
2023-04-11T19:07:41.484Z,68.49
2023-04-11T19:10:08.284Z,68.62
2023-04-11T19:12:34.948Z,68.55
2023-04-11T19:15:01.591Z,68.42
2023-04-11T19:17:28.393Z,68.27
2023-04-11T19:19:54.945Z,68.16
2023-04-11T19:22:21.568Z,68.18
2023-04-11T19:24:49.866Z,68.18
2023-04-11T19:27:18.417Z,68.42
2023-04-11T19:29:45.385Z,68.46
2023-04-11T19:32:12.277Z,68.44
2023-04-11T19:34:41.230Z,68.33
2023-04-11T19:37:08.226Z,68.30
2023-04-11T19:39:38.386Z,68.43
2023-04-11T19:42:05.188Z,68.40
2023-04-11T19:44:31.635Z,68.53
2023-04-11T19:46:58.101Z,68.59
2023-04-11T19:49:24.546Z,68.35
2023-04-11T19:51:51.301Z,68.59
2023-04-11T19:54:17.753Z,68.28
2023-04-11T19:56:49.156Z,68.16
2023-04-11T19:59:15.918Z,68.25
2023-04-11T20:01:42.513Z,68.46
2023-04-11T20:04:09.826Z,68.27
2023-04-11T20:06:36.608Z,68.21
2023-04-11T20:09:04.159Z,68.06
2023-04-11T20:11:32.812Z,68.22
2023-04-11T20:13:59.373Z,68.13
2023-04-11T20:16:26.467Z,67.96
2023-04-11T20:18:53.693Z,67.92
2023-04-11T20:21:20.185Z,67.97
2023-04-11T20:23:46.632Z,67.70
2023-04-11T20:26:13.200Z,67.73
2023-04-11T20:28:39.818Z,67.84
2023-04-11T20:31:06.856Z,67.78
2023-04-11T20:33:33.345Z,67.82
2023-04-11T20:35:59.786Z,67.86
2023-04-11T20:38:27.614Z,67.80
2023-04-11T20:40:54.100Z,67.69
2023-04-11T20:43:20.572Z,67.62
2023-04-11T20:45:47.067Z,67.67
2023-04-11T20:48:13.701Z,67.58
2023-04-11T20:50:41.155Z,67.46
2023-04-11T20:53:07.857Z,67.48
2023-04-11T20:55:34.438Z,67.68
2023-04-11T20:58:00.852Z,67.59
2023-04-11T21:00:27.517Z,67.39
2023-04-11T21:02:54.417Z,67.47
2023-04-11T21:05:25.128Z,67.15
2023-04-11T21:07:54.318Z,67.14
2023-04-11T21:10:21.181Z,67.30
2023-04-11T21:12:54.158Z,67.19
2023-04-11T21:15:21.326Z,67.01
2023-04-11T21:17:48.255Z,67.02
2023-04-11T21:20:18.212Z,66.97
2023-04-11T21:22:45.566Z,67.11
2023-04-11T21:25:11.999Z,67.04
2023-04-11T21:27:38.485Z,66.96
2023-04-11T21:30:06.388Z,66.81
2023-04-11T21:32:33.127Z,66.96
2023-04-11T21:34:59.728Z,66.92
2023-04-11T21:37:26.127Z,66.90
2023-04-11T21:39:55.738Z,66.89
2023-04-11T21:42:22.271Z,66.82
2023-04-11T21:44:48.688Z,66.72
2023-04-11T21:47:15.093Z,66.72
2023-04-11T21:49:41.537Z,66.68
2023-04-11T21:52:08.825Z,66.78
2023-04-11T21:54:35.423Z,66.50
2023-04-11T21:57:02.196Z,66.37
2023-04-11T21:59:28.658Z,66.54
2023-04-11T22:01:55.253Z,66.41
2023-04-11T22:04:22.202Z,66.47
2023-04-11T22:06:48.756Z,66.51
2023-04-11T22:09:15.378Z,66.25
2023-04-11T22:11:42.073Z,66.32
2023-04-11T22:14:08.504Z,66.32
2023-04-11T22:16:35.366Z,66.19
2023-04-11T22:19:01.857Z,66.39
2023-04-11T22:21:28.540Z,66.16
2023-04-11T22:23:56.360Z,66.04
2023-04-11T22:26:26.366Z,66.25
2023-04-11T22:28:54.322Z,66.12
2023-04-11T22:31:21.102Z,65.92
2023-04-11T22:33:48.043Z,65.89
2023-04-11T22:36:14.741Z,65.85
2023-04-11T22:38:41.213Z,65.85
2023-04-11T22:41:13.878Z,66.08
2023-04-11T22:43:40.354Z,65.91
2023-04-11T22:46:08.981Z,66.00
2023-04-11T22:48:36.361Z,65.87
2023-04-11T22:51:03.540Z,65.79
2023-04-11T22:53:29.991Z,65.76
2023-04-11T22:55:56.562Z,65.58
2023-04-11T22:58:23.055Z,65.83
2023-04-11T23:00:49.589Z,65.86
2023-04-11T23:03:16.208Z,65.76
2023-04-11T23:05:42.787Z,65.64
2023-04-11T23:08:09.875Z,65.62
2023-04-11T23:10:36.888Z,65.41
2023-04-11T23:13:03.627Z,65.37
2023-04-11T23:15:31.645Z,65.38
2023-04-11T23:17:58.767Z,65.44
2023-04-11T23:20:25.460Z,65.25
2023-04-11T23:22:51.923Z,65.17
2023-04-11T23:25:18.351Z,65.45
2023-04-11T23:27:45.083Z,65.32
2023-04-11T23:30:11.992Z,65.28
2023-04-11T23:32:38.958Z,65.14
2023-04-11T23:35:06.125Z,65.03
2023-04-11T23:37:32.618Z,65.04
2023-04-11T23:39:59.528Z,64.95
2023-04-11T23:42:26.222Z,65.14
2023-04-11T23:44:52.773Z,64.97
2023-04-11T23:47:19.242Z,65.17
2023-04-11T23:49:45.764Z,65.23
2023-04-11T23:52:12.323Z,64.92
2023-04-11T23:54:38.754Z,64.97
2023-04-11T23:57:05.357Z,64.82
2023-04-11T23:59:31.861Z,64.80
